sensor_id;sensor_type;location;lat;lon;timestamp;temperature;humidity
17331;DHT22;8783;52.448;4.638;2022-09-09T00:02:00;22.90;99.90
17331;DHT22;8783;52.448;4.638;2022-09-09T00:12:43;22.90;99.90
17331;DHT22;8783;52.448;4.638;2022-09-09T00:15:20;22.80;99.90
17331;DHT22;8783;52.448;4.638;2022-09-09T00:17:53;22.80;99.90
17331;DHT22;8783;52.448;4.638;2022-09-09T00:28:25;22.80;99.90
17331;DHT22;8783;52.448;4.638;2022-09-09T00:30:52;22.80;99.90
17331;DHT22;8783;52.448;4.638;2022-09-09T00:33:21;22.80;99.90
17331;DHT22;8783;52.448;4.638;2022-09-09T00:35:50;22.80;99.90
17331;DHT22;8783;52.448;4.638;2022-09-09T00:38:31;22.80;99.90
17331;DHT22;8783;52.448;4.638;2022-09-09T00:41:07;22.80;99.90
17331;DHT22;8783;52.448;4.638;2022-09-09T00:43:37;22.80;99.90
17331;DHT22;8783;52.448;4.638;2022-09-09T00:49:04;22.80;99.90
17331;DHT22;8783;52.448;4.638;2022-09-09T00:51:58;22.80;99.90
17331;DHT22;8783;52.448;4.638;2022-09-09T00:54:39;22.70;99.90
17331;DHT22;8783;52.448;4.638;2022-09-09T00:57:31;22.80;99.90
17331;DHT22;8783;52.448;4.638;2022-09-09T01:00:15;22.80;99.90
17331;DHT22;8783;52.448;4.638;2022-09-09T01:03:10;22.70;99.90
17331;DHT22;8783;52.448;4.638;2022-09-09T01:05:46;22.70;99.90
17331;DHT22;8783;52.448;4.638;2022-09-09T01:11:00;22.60;99.90
17331;DHT22;8783;52.448;4.638;2022-09-09T01:13:33;22.60;99.90
17331;DHT22;8783;52.448;4.638;2022-09-09T01:16:10;22.70;99.90
17331;DHT22;8783;52.448;4.638;2022-09-09T01:18:43;22.70;99.90
17331;DHT22;8783;52.448;4.638;2022-09-09T01:27:13;22.60;99.90
17331;DHT22;8783;52.448;4.638;2022-09-09T01:29:42;22.60;99.90
17331;DHT22;8783;52.448;4.638;2022-09-09T01:35:02;22.60;99.90
17331;DHT22;8783;52.448;4.638;2022-09-09T01:37:31;22.50;99.90
17331;DHT22;8783;52.448;4.638;2022-09-09T01:39:56;22.60;99.90
17331;DHT22;8783;52.448;4.638;2022-09-09T01:42:28;22.50;99.90
17331;DHT22;8783;52.448;4.638;2022-09-09T01:44:56;22.50;99.90
17331;DHT22;8783;52.448;4.638;2022-09-09T01:47:22;22.50;99.90
17331;DHT22;8783;52.448;4.638;2022-09-09T01:49:51;22.50;99.90
17331;DHT22;8783;52.448;4.638;2022-09-09T01:52:19;22.50;99.90
17331;DHT22;8783;52.448;4.638;2022-09-09T01:54:45;22.50;99.90
17331;DHT22;8783;52.448;4.638;2022-09-09T01:57:39;22.50;99.90
17331;DHT22;8783;52.448;4.638;2022-09-09T02:00:13;22.50;99.90
17331;DHT22;8783;52.448;4.638;2022-09-09T02:07:55;22.50;99.90
17331;DHT22;8783;52.448;4.638;2022-09-09T02:10:50;22.40;99.90
17331;DHT22;8783;52.448;4.638;2022-09-09T02:13:22;22.50;99.90
17331;DHT22;8783;52.448;4.638;2022-09-09T02:15:57;22.50;99.90
17331;DHT22;8783;52.448;4.638;2022-09-09T02:18:37;22.40;99.90
17331;DHT22;8783;52.448;4.638;2022-09-09T02:21:10;22.40;99.90
17331;DHT22;8783;52.448;4.638;2022-09-09T02:23:41;22.40;99.90
17331;DHT22;8783;52.448;4.638;2022-09-09T02:26:08;22.40;99.90
17331;DHT22;8783;52.448;4.638;2022-09-09T02:28:39;22.40;99.90
17331;DHT22;8783;52.448;4.638;2022-09-09T02:31:06;22.40;99.90
17331;DHT22;8783;52.448;4.638;2022-09-09T02:33:42;22.40;99.90
17331;DHT22;8783;52.448;4.638;2022-09-09T02:36:09;22.30;99.90
17331;DHT22;8783;52.448;4.638;2022-09-09T02:38:47;22.40;99.90
17331;DHT22;8783;52.448;4.638;2022-09-09T02:41:26;22.30;99.90
17331;DHT22;8783;52.448;4.638;2022-09-09T02:43:55;22.30;99.90
17331;DHT22;8783;52.448;4.638;2022-09-09T02:46:36;22.30;99.90
17331;DHT22;8783;52.448;4.638;2022-09-09T02:49:10;22.30;99.90
17331;DHT22;8783;52.448;4.638;2022-09-09T02:51:53;22.30;99.90
17331;DHT22;8783;52.448;4.638;2022-09-09T02:54:31;22.30;99.90
17331;DHT22;8783;52.448;4.638;2022-09-09T02:57:21;22.20;99.90
17331;DHT22;8783;52.448;4.638;2022-09-09T02:59:50;22.20;99.90
17331;DHT22;8783;52.448;4.638;2022-09-09T03:02:17;22.20;99.90
17331;DHT22;8783;52.448;4.638;2022-09-09T03:04:45;22.20;99.90
17331;DHT22;8783;52.448;4.638;2022-09-09T03:07:16;22.20;99.90
17331;DHT22;8783;52.448;4.638;2022-09-09T03:09:44;22.20;99.90
17331;DHT22;8783;52.448;4.638;2022-09-09T03:12:14;22.20;99.90
17331;DHT22;8783;52.448;4.638;2022-09-09T03:14:40;22.20;99.90
17331;DHT22;8783;52.448;4.638;2022-09-09T03:17:10;22.10;99.90
17331;DHT22;8783;52.448;4.638;2022-09-09T03:19:39;22.10;99.90
17331;DHT22;8783;52.448;4.638;2022-09-09T03:22:05;22.10;99.90
17331;DHT22;8783;52.448;4.638;2022-09-09T03:24:30;22.10;99.90
17331;DHT22;8783;52.448;4.638;2022-09-09T03:27:02;22.10;99.90
17331;DHT22;8783;52.448;4.638;2022-09-09T03:29:30;22.10;99.90
17331;DHT22;8783;52.448;4.638;2022-09-09T03:31:59;22.10;99.90
17331;DHT22;8783;52.448;4.638;2022-09-09T03:34:25;22.10;99.90
17331;DHT22;8783;52.448;4.638;2022-09-09T03:36:50;22.10;99.90
17331;DHT22;8783;52.448;4.638;2022-09-09T03:39:19;22.10;99.90
17331;DHT22;8783;52.448;4.638;2022-09-09T03:41:45;22.00;99.90
17331;DHT22;8783;52.448;4.638;2022-09-09T03:44:13;22.00;99.90
17331;DHT22;8783;52.448;4.638;2022-09-09T03:46:38;22.00;99.90
17331;DHT22;8783;52.448;4.638;2022-09-09T03:49:04;22.00;99.90
17331;DHT22;8783;52.448;4.638;2022-09-09T03:51:30;22.00;99.90
17331;DHT22;8783;52.448;4.638;2022-09-09T03:53:56;22.00;99.90
17331;DHT22;8783;52.448;4.638;2022-09-09T03:56:23;22.00;99.90
17331;DHT22;8783;52.448;4.638;2022-09-09T03:58:49;21.90;99.90
17331;DHT22;8783;52.448;4.638;2022-09-09T04:01:15;21.90;99.90
17331;DHT22;8783;52.448;4.638;2022-09-09T04:03:43;21.90;99.90
17331;DHT22;8783;52.448;4.638;2022-09-09T04:06:14;21.90;99.90
17331;DHT22;8783;52.448;4.638;2022-09-09T04:08:43;21.90;99.90
17331;DHT22;8783;52.448;4.638;2022-09-09T04:11:10;21.90;99.90
17331;DHT22;8783;52.448;4.638;2022-09-09T04:13:38;21.90;99.90
17331;DHT22;8783;52.448;4.638;2022-09-09T04:16:11;21.90;99.90
17331;DHT22;8783;52.448;4.638;2022-09-09T04:18:38;21.80;99.90
17331;DHT22;8783;52.448;4.638;2022-09-09T04:21:04;21.80;99.90
17331;DHT22;8783;52.448;4.638;2022-09-09T04:23:34;21.80;99.90
17331;DHT22;8783;52.448;4.638;2022-09-09T04:26:02;21.90;99.90
17331;DHT22;8783;52.448;4.638;2022-09-09T04:28:30;21.90;99.90
17331;DHT22;8783;52.448;4.638;2022-09-09T04:30:56;21.90;99.90
17331;DHT22;8783;52.448;4.638;2022-09-09T04:33:25;21.80;99.90
17331;DHT22;8783;52.448;4.638;2022-09-09T04:35:53;21.80;99.90
17331;DHT22;8783;52.448;4.638;2022-09-09T04:38:19;21.80;99.90
17331;DHT22;8783;52.448;4.638;2022-09-09T04:40:50;21.80;99.90
17331;DHT22;8783;52.448;4.638;2022-09-09T04:43:19;21.80;99.90
17331;DHT22;8783;52.448;4.638;2022-09-09T04:45:50;21.70;99.90
17331;DHT22;8783;52.448;4.638;2022-09-09T04:48:25;21.70;99.90
17331;DHT22;8783;52.448;4.638;2022-09-09T04:50:55;21.60;99.90
17331;DHT22;8783;52.448;4.638;2022-09-09T04:53:21;21.60;99.90
17331;DHT22;8783;52.448;4.638;2022-09-09T04:55:47;21.60;99.90
17331;DHT22;8783;52.448;4.638;2022-09-09T04:58:13;21.60;99.90
17331;DHT22;8783;52.448;4.638;2022-09-09T05:00:38;21.60;99.90
17331;DHT22;8783;52.448;4.638;2022-09-09T05:03:05;21.60;99.90
17331;DHT22;8783;52.448;4.638;2022-09-09T05:05:31;21.60;99.90
17331;DHT22;8783;52.448;4.638;2022-09-09T05:08:07;21.60;99.90
17331;DHT22;8783;52.448;4.638;2022-09-09T05:10:35;21.50;99.90
17331;DHT22;8783;52.448;4.638;2022-09-09T05:13:02;21.50;99.90
17331;DHT22;8783;52.448;4.638;2022-09-09T05:15:27;21.50;99.90
17331;DHT22;8783;52.448;4.638;2022-09-09T05:17:57;21.50;99.90
17331;DHT22;8783;52.448;4.638;2022-09-09T05:20:23;21.50;99.90
17331;DHT22;8783;52.448;4.638;2022-09-09T05:22:53;21.50;99.90
17331;DHT22;8783;52.448;4.638;2022-09-09T05:25:19;21.50;99.90
17331;DHT22;8783;52.448;4.638;2022-09-09T05:27:45;21.40;99.90
17331;DHT22;8783;52.448;4.638;2022-09-09T05:30:10;21.40;99.90
17331;DHT22;8783;52.448;4.638;2022-09-09T05:32:36;21.40;99.90
17331;DHT22;8783;52.448;4.638;2022-09-09T05:35:02;21.40;99.90
17331;DHT22;8783;52.448;4.638;2022-09-09T05:37:28;21.40;99.90
17331;DHT22;8783;52.448;4.638;2022-09-09T05:39:55;21.40;99.90
17331;DHT22;8783;52.448;4.638;2022-09-09T05:42:21;21.40;99.90
17331;DHT22;8783;52.448;4.638;2022-09-09T05:44:47;21.40;99.90
17331;DHT22;8783;52.448;4.638;2022-09-09T05:47:12;21.40;99.90
17331;DHT22;8783;52.448;4.638;2022-09-09T05:49:38;21.40;99.90
17331;DHT22;8783;52.448;4.638;2022-09-09T05:52:03;21.40;99.90
17331;DHT22;8783;52.448;4.638;2022-09-09T05:54:29;21.40;99.90
17331;DHT22;8783;52.448;4.638;2022-09-09T05:56:55;21.40;99.90
17331;DHT22;8783;52.448;4.638;2022-09-09T05:59:21;21.40;99.90
17331;DHT22;8783;52.448;4.638;2022-09-09T06:01:48;21.30;99.90
17331;DHT22;8783;52.448;4.638;2022-09-09T06:04:14;21.40;99.90
17331;DHT22;8783;52.448;4.638;2022-09-09T06:06:40;21.40;99.90
17331;DHT22;8783;52.448;4.638;2022-09-09T06:09:08;21.30;99.90
17331;DHT22;8783;52.448;4.638;2022-09-09T06:11:36;21.30;99.90
17331;DHT22;8783;52.448;4.638;2022-09-09T06:14:03;21.30;99.90
17331;DHT22;8783;52.448;4.638;2022-09-09T06:16:29;21.30;99.90
17331;DHT22;8783;52.448;4.638;2022-09-09T06:18:56;21.30;99.90
17331;DHT22;8783;52.448;4.638;2022-09-09T06:21:24;21.30;99.90
17331;DHT22;8783;52.448;4.638;2022-09-09T06:23:50;21.40;99.90
17331;DHT22;8783;52.448;4.638;2022-09-09T06:26:21;21.40;99.90
17331;DHT22;8783;52.448;4.638;2022-09-09T06:28:49;21.30;99.90
17331;DHT22;8783;52.448;4.638;2022-09-09T06:31:19;21.30;99.90
17331;DHT22;8783;52.448;4.638;2022-09-09T06:33:53;21.30;99.90
17331;DHT22;8783;52.448;4.638;2022-09-09T06:36:22;21.30;99.90
17331;DHT22;8783;52.448;4.638;2022-09-09T06:38:48;21.30;99.90
17331;DHT22;8783;52.448;4.638;2022-09-09T06:41:16;21.30;99.90
17331;DHT22;8783;52.448;4.638;2022-09-09T06:43:42;21.30;99.90
17331;DHT22;8783;52.448;4.638;2022-09-09T06:46:15;21.40;99.90
17331;DHT22;8783;52.448;4.638;2022-09-09T06:48:43;21.40;99.90
17331;DHT22;8783;52.448;4.638;2022-09-09T06:51:17;21.40;99.90
17331;DHT22;8783;52.448;4.638;2022-09-09T06:53:45;21.40;99.90
17331;DHT22;8783;52.448;4.638;2022-09-09T06:58:40;21.30;99.90
17331;DHT22;8783;52.448;4.638;2022-09-09T07:01:14;21.30;99.90
17331;DHT22;8783;52.448;4.638;2022-09-09T07:03:41;21.30;99.90
17331;DHT22;8783;52.448;4.638;2022-09-09T07:06:09;21.30;99.90
17331;DHT22;8783;52.448;4.638;2022-09-09T07:08:41;21.30;99.90
17331;DHT22;8783;52.448;4.638;2022-09-09T07:11:08;21.20;99.90
17331;DHT22;8783;52.448;4.638;2022-09-09T07:13:34;21.20;99.90
17331;DHT22;8783;52.448;4.638;2022-09-09T07:16:11;21.20;99.90
17331;DHT22;8783;52.448;4.638;2022-09-09T07:18:39;21.20;99.90
17331;DHT22;8783;52.448;4.638;2022-09-09T07:21:05;21.20;99.90
17331;DHT22;8783;52.448;4.638;2022-09-09T07:23:32;21.20;99.90
17331;DHT22;8783;52.448;4.638;2022-09-09T07:25:58;21.20;99.90
17331;DHT22;8783;52.448;4.638;2022-09-09T07:28:25;21.20;99.90
17331;DHT22;8783;52.448;4.638;2022-09-09T07:30:59;21.20;99.90
17331;DHT22;8783;52.448;4.638;2022-09-09T07:33:28;21.20;99.90
17331;DHT22;8783;52.448;4.638;2022-09-09T07:36:06;21.20;99.90
17331;DHT22;8783;52.448;4.638;2022-09-09T07:38:37;21.20;99.90
17331;DHT22;8783;52.448;4.638;2022-09-09T07:41:08;21.20;99.90
17331;DHT22;8783;52.448;4.638;2022-09-09T07:43:41;21.20;99.90
17331;DHT22;8783;52.448;4.638;2022-09-09T07:46:08;21.20;99.90
17331;DHT22;8783;52.448;4.638;2022-09-09T07:48:34;21.20;99.90
17331;DHT22;8783;52.448;4.638;2022-09-09T07:51:05;21.20;99.90
17331;DHT22;8783;52.448;4.638;2022-09-09T07:53:31;21.20;99.90
17331;DHT22;8783;52.448;4.638;2022-09-09T07:56:05;21.20;99.90
17331;DHT22;8783;52.448;4.638;2022-09-09T07:58:31;21.20;99.90
17331;DHT22;8783;52.448;4.638;2022-09-09T08:00:56;21.20;99.90
17331;DHT22;8783;52.448;4.638;2022-09-09T08:03:23;21.20;99.90
17331;DHT22;8783;52.448;4.638;2022-09-09T08:05:49;21.20;99.90
17331;DHT22;8783;52.448;4.638;2022-09-09T08:08:15;21.20;99.90
17331;DHT22;8783;52.448;4.638;2022-09-09T08:10:42;21.20;99.90
17331;DHT22;8783;52.448;4.638;2022-09-09T08:13:09;21.20;99.90
17331;DHT22;8783;52.448;4.638;2022-09-09T08:15:34;21.20;99.90
17331;DHT22;8783;52.448;4.638;2022-09-09T08:18:00;21.20;99.90
17331;DHT22;8783;52.448;4.638;2022-09-09T08:20:26;21.30;99.90
17331;DHT22;8783;52.448;4.638;2022-09-09T08:22:52;21.30;99.90
17331;DHT22;8783;52.448;4.638;2022-09-09T08:25:18;21.30;99.90
17331;DHT22;8783;52.448;4.638;2022-09-09T08:27:43;21.30;99.90
17331;DHT22;8783;52.448;4.638;2022-09-09T08:30:09;21.30;99.90
17331;DHT22;8783;52.448;4.638;2022-09-09T08:32:35;21.20;99.90
17331;DHT22;8783;52.448;4.638;2022-09-09T08:35:01;21.20;99.90
17331;DHT22;8783;52.448;4.638;2022-09-09T08:37:27;21.20;99.90
17331;DHT22;8783;52.448;4.638;2022-09-09T08:39:55;21.20;99.90
17331;DHT22;8783;52.448;4.638;2022-09-09T08:42:31;21.20;99.90
17331;DHT22;8783;52.448;4.638;2022-09-09T08:47:56;21.20;99.90
17331;DHT22;8783;52.448;4.638;2022-09-09T08:50:25;21.20;99.90
17331;DHT22;8783;52.448;4.638;2022-09-09T08:53:02;21.20;99.90
17331;DHT22;8783;52.448;4.638;2022-09-09T08:55:48;21.20;99.90
17331;DHT22;8783;52.448;4.638;2022-09-09T08:58:23;21.20;99.90
17331;DHT22;8783;52.448;4.638;2022-09-09T09:03:53;21.20;99.90
17331;DHT22;8783;52.448;4.638;2022-09-09T09:11:38;21.30;99.90
17331;DHT22;8783;52.448;4.638;2022-09-09T09:14:26;21.30;99.90
17331;DHT22;8783;52.448;4.638;2022-09-09T09:16:58;21.30;99.90
17331;DHT22;8783;52.448;4.638;2022-09-09T09:19:26;21.30;99.90
17331;DHT22;8783;52.448;4.638;2022-09-09T09:29:48;21.30;99.90
17331;DHT22;8783;52.448;4.638;2022-09-09T09:32:19;21.30;99.90
17331;DHT22;8783;52.448;4.638;2022-09-09T09:34:53;21.30;99.90
17331;DHT22;8783;52.448;4.638;2022-09-09T09:37:30;21.30;99.90
17331;DHT22;8783;52.448;4.638;2022-09-09T09:40:07;21.30;99.90
17331;DHT22;8783;52.448;4.638;2022-09-09T09:42:33;21.30;99.90
17331;DHT22;8783;52.448;4.638;2022-09-09T09:45:20;21.30;99.90
17331;DHT22;8783;52.448;4.638;2022-09-09T09:48:00;21.30;99.90
17331;DHT22;8783;52.448;4.638;2022-09-09T09:50:28;21.30;99.90
17331;DHT22;8783;52.448;4.638;2022-09-09T09:53:17;21.40;99.90
17331;DHT22;8783;52.448;4.638;2022-09-09T09:55:53;21.40;99.90
17331;DHT22;8783;52.448;4.638;2022-09-09T09:58:19;21.40;99.90
17331;DHT22;8783;52.448;4.638;2022-09-09T10:00:50;21.40;99.90
17331;DHT22;8783;52.448;4.638;2022-09-09T10:03:26;21.40;99.90
17331;DHT22;8783;52.448;4.638;2022-09-09T10:05:52;21.40;99.90
17331;DHT22;8783;52.448;4.638;2022-09-09T10:08:19;21.40;99.90
17331;DHT22;8783;52.448;4.638;2022-09-09T10:16:38;21.50;99.90
17331;DHT22;8783;52.448;4.638;2022-09-09T10:22:25;21.60;99.90
17331;DHT22;8783;52.448;4.638;2022-09-09T10:25:27;21.70;99.90
17331;DHT22;8783;52.448;4.638;2022-09-09T10:33:10;21.60;99.90
17331;DHT22;8783;52.448;4.638;2022-09-09T10:36:21;21.70;99.90
17331;DHT22;8783;52.448;4.638;2022-09-09T10:41:26;21.70;99.90
17331;DHT22;8783;52.448;4.638;2022-09-09T10:46:38;21.60;99.90
17331;DHT22;8783;52.448;4.638;2022-09-09T10:57:33;21.70;99.90
17331;DHT22;8783;52.448;4.638;2022-09-09T11:00:06;21.70;99.90
17331;DHT22;8783;52.448;4.638;2022-09-09T11:02:40;21.70;99.90
17331;DHT22;8783;52.448;4.638;2022-09-09T11:08:21;21.50;99.90
17331;DHT22;8783;52.448;4.638;2022-09-09T11:11:04;21.50;99.90
17331;DHT22;8783;52.448;4.638;2022-09-09T11:13:55;21.60;99.90
17331;DHT22;8783;52.448;4.638;2022-09-09T11:19:28;21.50;99.90
17331;DHT22;8783;52.448;4.638;2022-09-09T11:21:57;21.40;99.90
17331;DHT22;8783;52.448;4.638;2022-09-09T11:24:41;21.40;99.90
17331;DHT22;8783;52.448;4.638;2022-09-09T11:40:24;21.40;99.90
17331;DHT22;8783;52.448;4.638;2022-09-09T11:43:05;21.40;99.90
17331;DHT22;8783;52.448;4.638;2022-09-09T11:45:35;21.50;99.90
17331;DHT22;8783;52.448;4.638;2022-09-09T11:48:02;21.50;99.90
17331;DHT22;8783;52.448;4.638;2022-09-09T11:50:36;21.50;99.90
17331;DHT22;8783;52.448;4.638;2022-09-09T11:55:34;21.50;99.90
17331;DHT22;8783;52.448;4.638;2022-09-09T11:58:05;21.50;99.90
17331;DHT22;8783;52.448;4.638;2022-09-09T12:02:58;21.50;99.90
17331;DHT22;8783;52.448;4.638;2022-09-09T12:05:36;21.50;99.90
17331;DHT22;8783;52.448;4.638;2022-09-09T12:08:04;21.50;99.90
17331;DHT22;8783;52.448;4.638;2022-09-09T12:10:33;21.40;99.90
17331;DHT22;8783;52.448;4.638;2022-09-09T12:13:19;21.40;99.90
17331;DHT22;8783;52.448;4.638;2022-09-09T12:15:50;21.40;99.90
17331;DHT22;8783;52.448;4.638;2022-09-09T12:18:40;21.40;99.90
17331;DHT22;8783;52.448;4.638;2022-09-09T12:26:32;21.40;99.90
17331;DHT22;8783;52.448;4.638;2022-09-09T12:29:19;21.40;99.90
17331;DHT22;8783;52.448;4.638;2022-09-09T12:32:11;21.40;99.90
17331;DHT22;8783;52.448;4.638;2022-09-09T12:34:43;21.40;99.90
17331;DHT22;8783;52.448;4.638;2022-09-09T12:40:15;21.40;99.90
17331;DHT22;8783;52.448;4.638;2022-09-09T12:42:46;21.40;99.90
17331;DHT22;8783;52.448;4.638;2022-09-09T12:45:23;21.40;99.90
17331;DHT22;8783;52.448;4.638;2022-09-09T12:50:26;21.40;99.90
17331;DHT22;8783;52.448;4.638;2022-09-09T12:53:06;21.40;99.90
17331;DHT22;8783;52.448;4.638;2022-09-09T12:55:38;21.40;99.90
17331;DHT22;8783;52.448;4.638;2022-09-09T12:58:11;21.40;99.90
17331;DHT22;8783;52.448;4.638;2022-09-09T13:00:49;21.40;99.90
17331;DHT22;8783;52.448;4.638;2022-09-09T13:03:18;21.40;99.90
17331;DHT22;8783;52.448;4.638;2022-09-09T13:05:46;21.40;99.90
17331;DHT22;8783;52.448;4.638;2022-09-09T13:08:14;21.40;99.90
17331;DHT22;8783;52.448;4.638;2022-09-09T13:11:07;21.40;99.90
17331;DHT22;8783;52.448;4.638;2022-09-09T13:13:43;21.40;99.90
17331;DHT22;8783;52.448;4.638;2022-09-09T13:16:30;21.40;99.90
17331;DHT22;8783;52.448;4.638;2022-09-09T13:19:01;21.40;99.90
17331;DHT22;8783;52.448;4.638;2022-09-09T13:21:32;21.40;99.90
17331;DHT22;8783;52.448;4.638;2022-09-09T13:24:01;21.40;99.90
17331;DHT22;8783;52.448;4.638;2022-09-09T13:26:30;21.40;99.90
17331;DHT22;8783;52.448;4.638;2022-09-09T13:29:21;21.40;99.90
17331;DHT22;8783;52.448;4.638;2022-09-09T13:31:50;21.40;99.90
17331;DHT22;8783;52.448;4.638;2022-09-09T13:34:32;21.40;99.90
17331;DHT22;8783;52.448;4.638;2022-09-09T13:37:17;21.40;99.90
17331;DHT22;8783;52.448;4.638;2022-09-09T13:39:54;21.40;99.90
17331;DHT22;8783;52.448;4.638;2022-09-09T13:42:32;21.30;99.90
17331;DHT22;8783;52.448;4.638;2022-09-09T13:45:00;21.30;99.90
17331;DHT22;8783;52.448;4.638;2022-09-09T13:47:32;21.30;99.90
17331;DHT22;8783;52.448;4.638;2022-09-09T13:50:09;21.30;99.90
17331;DHT22;8783;52.448;4.638;2022-09-09T13:52:34;21.40;99.90
17331;DHT22;8783;52.448;4.638;2022-09-09T13:55:01;21.40;99.90
17331;DHT22;8783;52.448;4.638;2022-09-09T13:57:27;21.30;99.90
17331;DHT22;8783;52.448;4.638;2022-09-09T13:59:54;21.40;99.90
17331;DHT22;8783;52.448;4.638;2022-09-09T14:02:20;21.40;99.90
17331;DHT22;8783;52.448;4.638;2022-09-09T14:04:48;21.40;99.90
17331;DHT22;8783;52.448;4.638;2022-09-09T14:07:17;21.40;99.90
17331;DHT22;8783;52.448;4.638;2022-09-09T14:09:44;21.50;99.90
17331;DHT22;8783;52.448;4.638;2022-09-09T14:12:14;21.60;99.90
17331;DHT22;8783;52.448;4.638;2022-09-09T14:14:41;21.70;99.90
17331;DHT22;8783;52.448;4.638;2022-09-09T14:17:08;21.80;99.90
17331;DHT22;8783;52.448;4.638;2022-09-09T14:19:34;21.80;99.90
17331;DHT22;8783;52.448;4.638;2022-09-09T14:22:00;21.80;99.90
17331;DHT22;8783;52.448;4.638;2022-09-09T14:24:26;21.80;99.90
17331;DHT22;8783;52.448;4.638;2022-09-09T14:26:53;21.80;99.90
17331;DHT22;8783;52.448;4.638;2022-09-09T14:29:19;21.80;99.90
17331;DHT22;8783;52.448;4.638;2022-09-09T14:31:44;21.80;99.90
17331;DHT22;8783;52.448;4.638;2022-09-09T14:34:10;21.80;99.90
17331;DHT22;8783;52.448;4.638;2022-09-09T14:36:37;21.80;99.90
17331;DHT22;8783;52.448;4.638;2022-09-09T14:39:03;21.80;99.90
17331;DHT22;8783;52.448;4.638;2022-09-09T14:41:29;21.80;99.90
17331;DHT22;8783;52.448;4.638;2022-09-09T14:43:55;21.80;99.90
17331;DHT22;8783;52.448;4.638;2022-09-09T14:46:25;21.80;99.90
17331;DHT22;8783;52.448;4.638;2022-09-09T14:48:52;21.70;99.90
17331;DHT22;8783;52.448;4.638;2022-09-09T14:51:20;21.70;99.90
17331;DHT22;8783;52.448;4.638;2022-09-09T14:53:50;21.70;99.90
17331;DHT22;8783;52.448;4.638;2022-09-09T14:56:18;21.70;99.90
17331;DHT22;8783;52.448;4.638;2022-09-09T14:58:44;21.70;99.90
17331;DHT22;8783;52.448;4.638;2022-09-09T15:01:15;21.70;99.90
17331;DHT22;8783;52.448;4.638;2022-09-09T15:03:42;21.70;99.90
17331;DHT22;8783;52.448;4.638;2022-09-09T15:06:11;21.70;99.90
17331;DHT22;8783;52.448;4.638;2022-09-09T15:08:40;21.80;99.90
17331;DHT22;8783;52.448;4.638;2022-09-09T15:11:06;21.80;99.90
17331;DHT22;8783;52.448;4.638;2022-09-09T15:13:33;21.80;99.90
17331;DHT22;8783;52.448;4.638;2022-09-09T15:18:38;21.80;99.90
17331;DHT22;8783;52.448;4.638;2022-09-09T15:21:09;21.80;99.90
17331;DHT22;8783;52.448;4.638;2022-09-09T15:23:36;21.70;99.90
17331;DHT22;8783;52.448;4.638;2022-09-09T15:26:02;21.70;99.90
17331;DHT22;8783;52.448;4.638;2022-09-09T15:28:32;21.60;99.90
17331;DHT22;8783;52.448;4.638;2022-09-09T15:31:06;21.60;99.90
17331;DHT22;8783;52.448;4.638;2022-09-09T15:33:36;21.60;99.90
17331;DHT22;8783;52.448;4.638;2022-09-09T15:36:23;21.60;99.90
17331;DHT22;8783;52.448;4.638;2022-09-09T15:38:50;21.50;99.90
17331;DHT22;8783;52.448;4.638;2022-09-09T15:41:19;21.50;99.90
17331;DHT22;8783;52.448;4.638;2022-09-09T15:43:50;21.60;99.90
17331;DHT22;8783;52.448;4.638;2022-09-09T15:48:45;21.50;99.90
17331;DHT22;8783;52.448;4.638;2022-09-09T15:51:11;21.60;99.90
17331;DHT22;8783;52.448;4.638;2022-09-09T15:53:42;21.60;99.90
17331;DHT22;8783;52.448;4.638;2022-09-09T15:56:09;21.60;99.90
17331;DHT22;8783;52.448;4.638;2022-09-09T15:58:37;21.60;99.90
17331;DHT22;8783;52.448;4.638;2022-09-09T16:01:09;21.60;99.90
17331;DHT22;8783;52.448;4.638;2022-09-09T16:03:41;21.60;99.90
17331;DHT22;8783;52.448;4.638;2022-09-09T16:06:10;21.60;99.90
17331;DHT22;8783;52.448;4.638;2022-09-09T16:08:41;21.60;99.90
17331;DHT22;8783;52.448;4.638;2022-09-09T16:11:14;21.60;99.90
17331;DHT22;8783;52.448;4.638;2022-09-09T16:13:46;21.60;99.90
17331;DHT22;8783;52.448;4.638;2022-09-09T16:16:14;21.60;99.90
17331;DHT22;8783;52.448;4.638;2022-09-09T16:18:50;21.60;99.90
17331;DHT22;8783;52.448;4.638;2022-09-09T16:21:24;21.60;99.90
17331;DHT22;8783;52.448;4.638;2022-09-09T16:23:51;21.50;99.90
17331;DHT22;8783;52.448;4.638;2022-09-09T16:26:20;21.50;99.90
17331;DHT22;8783;52.448;4.638;2022-09-09T16:28:46;21.60;99.90
17331;DHT22;8783;52.448;4.638;2022-09-09T16:31:25;21.60;99.90
17331;DHT22;8783;52.448;4.638;2022-09-09T16:33:51;21.60;99.90
17331;DHT22;8783;52.448;4.638;2022-09-09T16:36:22;21.60;99.90
17331;DHT22;8783;52.448;4.638;2022-09-09T16:38:55;21.50;99.90
17331;DHT22;8783;52.448;4.638;2022-09-09T16:41:22;21.50;99.90
17331;DHT22;8783;52.448;4.638;2022-09-09T16:43:56;21.50;99.90
17331;DHT22;8783;52.448;4.638;2022-09-09T16:46:22;21.60;99.90
17331;DHT22;8783;52.448;4.638;2022-09-09T16:48:49;21.60;99.90
17331;DHT22;8783;52.448;4.638;2022-09-09T16:51:30;21.50;99.90
17331;DHT22;8783;52.448;4.638;2022-09-09T16:53:58;21.60;99.90
17331;DHT22;8783;52.448;4.638;2022-09-09T16:56:31;21.50;99.90
17331;DHT22;8783;52.448;4.638;2022-09-09T16:59:04;21.50;99.90
17331;DHT22;8783;52.448;4.638;2022-09-09T17:01:34;21.60;99.90
17331;DHT22;8783;52.448;4.638;2022-09-09T17:04:07;21.50;99.90
17331;DHT22;8783;52.448;4.638;2022-09-09T17:06:34;21.60;99.90
17331;DHT22;8783;52.448;4.638;2022-09-09T17:09:01;21.60;99.90
17331;DHT22;8783;52.448;4.638;2022-09-09T17:11:29;21.60;99.90
17331;DHT22;8783;52.448;4.638;2022-09-09T17:13:55;21.60;99.90
17331;DHT22;8783;52.448;4.638;2022-09-09T17:16:24;21.60;99.90
17331;DHT22;8783;52.448;4.638;2022-09-09T17:18:51;21.60;99.90
17331;DHT22;8783;52.448;4.638;2022-09-09T17:21:22;21.60;99.90
17331;DHT22;8783;52.448;4.638;2022-09-09T17:23:49;21.60;99.90
17331;DHT22;8783;52.448;4.638;2022-09-09T17:26:18;21.70;99.90
17331;DHT22;8783;52.448;4.638;2022-09-09T17:28:45;21.70;99.90
17331;DHT22;8783;52.448;4.638;2022-09-09T17:31:15;21.70;99.90
17331;DHT22;8783;52.448;4.638;2022-09-09T17:33:43;21.70;99.90
17331;DHT22;8783;52.448;4.638;2022-09-09T17:38:40;21.70;99.90
17331;DHT22;8783;52.448;4.638;2022-09-09T17:41:15;21.70;99.90
17331;DHT22;8783;52.448;4.638;2022-09-09T17:43:41;21.70;99.90
17331;DHT22;8783;52.448;4.638;2022-09-09T17:46:25;21.70;99.90
17331;DHT22;8783;52.448;4.638;2022-09-09T17:48:55;21.70;99.90
17331;DHT22;8783;52.448;4.638;2022-09-09T17:51:24;21.70;99.90
17331;DHT22;8783;52.448;4.638;2022-09-09T17:53:54;21.70;99.90
17331;DHT22;8783;52.448;4.638;2022-09-09T17:56:21;21.70;99.90
17331;DHT22;8783;52.448;4.638;2022-09-09T17:58:48;21.70;99.90
17331;DHT22;8783;52.448;4.638;2022-09-09T18:03:49;21.70;99.90
17331;DHT22;8783;52.448;4.638;2022-09-09T18:06:17;21.70;99.90
17331;DHT22;8783;52.448;4.638;2022-09-09T18:08:48;21.80;99.90
17331;DHT22;8783;52.448;4.638;2022-09-09T18:11:15;21.80;99.90
17331;DHT22;8783;52.448;4.638;2022-09-09T18:13:40;21.80;99.90
17331;DHT22;8783;52.448;4.638;2022-09-09T18:16:07;21.80;99.90
17331;DHT22;8783;52.448;4.638;2022-09-09T18:18:33;21.80;99.90